Time;durP1;ratioP1;P1;durP2;ratioP2;P2;SDS_P1;SDS_P2;PMS_P1;PMS_P2;Temp;Humidity;BMP_temperature;BMP_pressure;BME280_temperature;BME280_humidity;BME280_pressure;Samples;Min_cycle;Max_cycle;Signal;HPM_P1;HPM_P2
2022/07/20 00:01:32;;;;;;;10.57;1.83;;;;;;;26.10;45.18;100736.34;4972819;28;20487;-80
2022/07/20 00:03:58;;;;;;;3.13;1.50;;;;;;;25.92;45.80;100744.06;4972557;28;20046;-81
2022/07/20 00:06:23;;;;;;;6.20;1.90;;;;;;;25.89;46.62;100737.22;4956385;28;20101;-81
2022/07/20 00:11:33;;;;;;;7.72;2.00;;;;;;;25.73;47.75;100731.91;4953846;29;20039;-81
2022/07/20 00:14:01;;;;;;;5.07;1.80;;;;;;;25.73;48.02;100729.19;4953364;29;20045;-80
2022/07/20 00:16:28;;;;;;;3.47;1.80;;;;;;;25.75;47.87;100732.47;4953653;28;20123;-81
2022/07/20 00:18:54;;;;;;;7.13;2.05;;;;;;;25.65;48.60;100733.19;4956858;28;20050;-81
2022/07/20 00:21:20;;;;;;;7.50;1.83;;;;;;;25.61;48.95;100734.78;4957252;29;20039;-80
2022/07/20 00:23:46;;;;;;;8.82;2.38;;;;;;;25.64;48.23;100723.41;4956464;28;20038;-80
2022/07/20 00:26:11;;;;;;;7.95;1.80;;;;;;;25.65;47.82;100731.28;4957263;28;20039;-81
2022/07/20 00:28:37;;;;;;;6.18;2.03;;;;;;;25.45;48.37;100722.09;4956896;28;20166;-80
2022/07/20 00:31:03;;;;;;;6.60;1.90;;;;;;;25.45;48.17;100722.09;4974096;28;20030;-81
2022/07/20 00:33:29;;;;;;;5.60;1.40;;;;;;;25.57;47.77;100730.94;4956387;28;20496;-81
2022/07/20 00:35:54;;;;;;;3.78;1.92;;;;;;;25.53;48.28;100719.75;4956809;29;20181;-80
2022/07/20 00:38:20;;;;;;;10.98;1.90;;;;;;;25.49;48.34;100723.19;4956102;28;20039;-80
2022/07/20 00:40:45;;;;;;;9.75;1.80;;;;;;;25.41;48.68;100726.38;4955362;29;20043;-81
2022/07/20 00:43:11;;;;;;;7.90;1.92;;;;;;;25.37;49.01;100730.69;4956965;29;20039;-81
2022/07/20 00:45:37;;;;;;;7.40;1.60;;;;;;;25.47;49.40;100728.91;4955134;29;20043;-82
2022/07/20 00:48:03;;;;;;;7.75;1.90;;;;;;;25.60;49.04;100735.84;4957335;28;20027;-80
2022/07/20 00:50:31;;;;;;;11.25;2.05;;;;;;;25.64;49.15;100734.28;4956997;28;20043;-82
2022/07/20 00:52:57;;;;;;;7.90;1.80;;;;;;;25.61;49.34;100742.94;4956859;28;20043;-81
2022/07/20 00:55:23;;;;;;;7.47;1.70;;;;;;;25.49;49.28;100731.34;4956996;28;20047;-81
2022/07/20 00:57:52;;;;;;;6.18;1.92;;;;;;;25.47;49.07;100731.63;4956715;29;20035;-82
2022/07/20 01:00:31;;;;;;;11.07;2.00;;;;;;;25.40;48.93;100735.59;5002933;23;20050;-83
2022/07/20 01:03:22;;;;;;;7.75;1.98;;;;;;;25.31;48.95;100732.53;4975771;28;20055;-83
2022/07/20 01:05:51;;;;;;;6.07;1.88;;;;;;;25.29;48.60;100736.56;4962244;28;20035;-80
2022/07/20 01:08:17;;;;;;;9.55;2.08;;;;;;;25.27;48.82;100739.53;4995391;28;20031;-83
2022/07/20 01:14:10;;;;;;;9.15;1.88;;;;;;;25.32;48.13;100733.34;4991527;28;20509;-85
2022/07/20 01:16:38;;;;;;;7.05;1.90;;;;;;;25.18;48.63;100735.63;4994348;23;20080;-81
2022/07/20 01:19:04;;;;;;;3.65;1.85;;;;;;;25.17;48.94;100737.50;4941575;28;20049;-82
2022/07/20 01:21:31;;;;;;;4.68;1.50;;;;;;;25.07;48.62;100740.09;4976997;28;20046;-83
2022/07/20 01:23:56;;;;;;;9.95;1.73;;;;;;;24.97;48.86;100737.25;4975774;28;20039;-83
2022/07/20 01:26:22;;;;;;;4.85;1.65;;;;;;;24.97;48.53;100739.97;4975804;28;20097;-80
2022/07/20 01:28:48;;;;;;;6.25;1.92;;;;;;;24.88;48.90;100736.06;4975379;28;20088;-80
2022/07/20 01:31:14;;;;;;;10.80;1.73;;;;;;;24.84;49.30;100734.91;4975159;28;20385;-81
2022/07/20 01:33:40;;;;;;;1.95;1.55;;;;;;;24.88;49.31;100737.94;4975434;28;20113;-82
2022/07/20 01:36:07;;;;;;;5.47;1.88;;;;;;;24.90;49.14;100731.19;4975369;28;20110;-82
2022/07/20 01:38:36;;;;;;;5.90;1.67;;;;;;;24.98;49.09;100738.91;4975568;28;20075;-82
2022/07/20 01:41:02;;;;;;;2.35;1.60;;;;;;;24.96;49.28;100735.59;4975593;28;20066;-83
2022/07/20 01:43:27;;;;;;;3.72;1.40;;;;;;;24.83;49.86;100741.38;4975798;28;20475;-83
2022/07/20 01:45:53;;;;;;;7.80;1.50;;;;;;;24.81;50.13;100743.50;4975459;28;20093;-82
2022/07/20 01:48:18;;;;;;;4.95;1.75;;;;;;;24.77;49.98;100736.94;4956942;29;20115;-84
2022/07/20 01:50:43;;;;;;;8.60;1.75;;;;;;;24.75;49.93;100739.09;4956534;29;20065;-82
2022/07/20 01:53:09;;;;;;;5.78;1.70;;;;;;;24.65;50.73;100749.78;4957276;29;20031;-83
2022/07/20 01:55:35;;;;;;;4.30;1.50;;;;;;;24.55;50.93;100747.75;4940674;29;20121;-82
2022/07/20 01:58:01;;;;;;;4.47;1.60;;;;;;;24.45;51.39;100746.78;4961585;29;20031;-82
2022/07/20 02:00:26;;;;;;;4.15;1.80;;;;;;;24.38;51.63;100738.81;4958819;29;20043;-80
2022/07/20 02:02:52;;;;;;;3.78;1.85;;;;;;;24.33;52.06;100752.25;4956574;29;20031;-82
2022/07/20 02:05:19;;;;;;;5.82;2.03;;;;;;;24.33;52.01;100736.00;4956349;29;20035;-82
2022/07/20 02:07:45;;;;;;;5.00;1.98;;;;;;;24.28;52.09;100737.81;4955977;29;20571;-83
2022/07/20 02:10:12;;;;;;;10.15;2.45;;;;;;;24.27;52.16;100736.19;4955939;29;20037;-81
2022/07/20 02:12:38;;;;;;;14.00;2.30;;;;;;;24.18;52.55;100744.72;4955983;29;20035;-82
2022/07/20 02:15:06;;;;;;;11.32;2.22;;;;;;;24.13;52.95;100735.69;4956211;29;20039;-82
2022/07/20 02:17:32;;;;;;;5.38;2.20;;;;;;;24.18;52.97;100733.91;4956255;29;20114;-83
2022/07/20 02:19:57;;;;;;;6.80;2.10;;;;;;;24.16;52.56;100733.31;4955633;29;20488;-83
2022/07/20 02:22:23;;;;;;;7.30;2.72;;;;;;;24.10;53.18;100731.53;4955577;29;20031;-83
2022/07/20 02:24:48;;;;;;;5.20;2.60;;;;;;;24.08;53.16;100735.56;4938614;29;20142;-83
2022/07/20 02:27:14;;;;;;;7.47;2.22;;;;;;;24.08;53.33;100733.69;4955693;29;20047;-83
2022/07/20 02:29:39;;;;;;;5.90;2.08;;;;;;;24.11;53.42;100735.09;4955192;29;20716;-82
2022/07/20 02:32:05;;;;;;;6.03;2.53;;;;;;;24.11;53.09;100730.50;4955429;29;20097;-83
2022/07/20 02:34:31;;;;;;;15.52;2.60;;;;;;;24.11;53.11;100733.19;4938887;29;20067;-80
2022/07/20 02:36:56;;;;;;;11.32;2.88;;;;;;;24.08;53.50;100736.41;4956530;29;20096;-83
2022/07/20 02:39:22;;;;;;;7.57;2.40;;;;;;;24.06;53.92;100735.00;4955658;29;20042;-82
2022/07/20 02:41:47;;;;;;;6.00;3.22;;;;;;;24.03;53.98;100733.59;4954250;28;20155;-82
2022/07/20 02:44:13;;;;;;;15.75;3.50;;;;;;;24.01;54.08;100738.44;4955085;29;20036;-83
2022/07/20 02:46:39;;;;;;;15.25;3.60;;;;;;;24.07;54.17;100742.88;4955288;29;20366;-82
2022/07/20 02:49:06;;;;;;;8.50;4.78;;;;;;;24.07;53.69;100742.88;4937976;29;20039;-83
2022/07/20 02:51:32;;;;;;;16.10;4.53;;;;;;;24.08;53.94;100732.88;4955218;29;20035;-82
2022/07/20 02:53:58;;;;;;;13.82;5.70;;;;;;;24.06;54.27;100746.63;4955832;29;20039;-84
2022/07/20 02:56:24;;;;;;;12.32;5.65;;;;;;;24.00;54.25;100739.50;4955125;29;20341;-83
2022/07/20 02:58:49;;;;;;;11.23;5.60;;;;;;;23.94;54.72;100743.19;4955984;29;20032;-81
2022/07/20 03:01:15;;;;;;;10.60;4.72;;;;;;;24.10;54.89;100750.50;4956192;29;20043;-85
2022/07/20 03:03:40;;;;;;;12.88;3.95;;;;;;;23.99;54.68;100746.00;4955069;29;20043;-81
2022/07/20 03:06:06;;;;;;;13.05;3.55;;;;;;;23.83;55.91;100751.38;4937236;29;20041;-82
2022/07/20 03:08:32;;;;;;;8.98;3.10;;;;;;;23.70;56.14;100747.06;4955762;29;20397;-81
2022/07/20 03:10:57;;;;;;;14.27;3.30;;;;;;;23.57;56.49;100755.47;4955641;29;20472;-82
2022/07/20 03:13:23;;;;;;;11.35;4.03;;;;;;;23.46;56.50;100756.38;4955704;29;20480;-82
2022/07/20 03:15:48;;;;;;;9.40;3.63;;;;;;;23.39;56.67;100752.94;4956871;29;20130;-82
2022/07/20 03:18:14;;;;;;;7.22;3.13;;;;;;;23.33;57.44;100756.63;4954726;29;20031;-82
2022/07/20 03:20:39;;;;;;;14.25;3.78;;;;;;;23.29;57.74;100763.56;4956338;29;20601;-82
2022/07/20 03:23:06;;;;;;;6.72;3.30;;;;;;;23.32;57.85;100760.38;4955073;29;20039;-81
2022/07/20 03:25:32;;;;;;;13.88;3.90;;;;;;;23.18;58.24;100765.22;4955058;29;20063;-82
2022/07/20 03:28:00;;;;;;;6.78;3.78;;;;;;;23.17;58.60;100766.28;4954822;29;20446;-83
2022/07/20 03:30:27;;;;;;;15.85;4.25;;;;;;;23.12;58.91;100766.19;4954403;29;20074;-83
2022/07/20 03:32:54;;;;;;;6.57;3.55;;;;;;;23.08;59.18;100763.13;4954513;29;20086;-82
2022/07/20 03:35:20;;;;;;;11.43;4.05;;;;;;;23.08;59.50;100765.84;4954683;29;20043;-82
2022/07/20 03:37:46;;;;;;;5.63;3.33;;;;;;;23.04;59.13;100767.38;4954630;29;20074;-80
2022/07/20 03:40:12;;;;;;;9.48;3.80;;;;;;;23.03;59.56;100768.44;4954400;29;20458;-82
2022/07/20 03:42:37;;;;;;;10.57;4.20;;;;;;;23.06;59.93;100767.16;4954587;29;20531;-82
2022/07/20 03:45:07;;;;;;;10.02;4.00;;;;;;;23.03;60.25;100767.63;4954536;29;20043;-82
2022/07/20 03:47:33;;;;;;;11.38;4.18;;;;;;;23.09;60.19;100769.38;4954640;29;20065;-82
2022/07/20 03:49:59;;;;;;;15.48;4.40;;;;;;;23.13;59.87;100771.34;4957330;29;20086;-83
2022/07/20 03:52:25;;;;;;;9.23;3.25;;;;;;;23.26;59.42;100772.16;4948687;29;20472;-82
2022/07/20 03:54:50;;;;;;;5.18;3.15;;;;;;;23.24;59.01;100775.09;4960115;29;20129;-80
2022/07/20 03:57:16;;;;;;;11.40;4.05;;;;;;;23.20;59.64;100773.13;4958451;29;20035;-83
2022/07/20 03:59:42;;;;;;;14.63;4.03;;;;;;;23.11;59.38;100770.78;4941201;29;20031;-82
2022/07/20 04:02:07;;;;;;;12.80;4.15;;;;;;;22.96;60.12;100775.88;4968290;29;20027;-79
2022/07/20 04:04:32;;;;;;;10.27;3.90;;;;;;;23.11;59.98;100772.66;4975825;29;20050;-80
2022/07/20 04:06:59;;;;;;;7.35;3.58;;;;;;;23.11;59.95;100768.06;4968913;29;20074;-83
2022/07/20 04:12:14;;;;;;;10.75;3.35;;;;;;;23.14;60.29;100775.69;4968061;29;20031;-82
2022/07/20 04:14:40;;;;;;;6.97;3.10;;;;;;;23.15;59.82;100782.75;4968713;29;20499;-83
2022/07/20 04:17:06;;;;;;;6.82;3.33;;;;;;;23.12;59.93;100777.00;4959535;29;20031;-82
2022/07/20 04:19:33;;;;;;;8.52;2.92;;;;;;;23.09;59.62;100783.72;4958714;29;20035;-83
2022/07/20 04:21:59;;;;;;;8.85;2.90;;;;;;;23.03;59.88;100781.97;4958319;29;20040;-82
2022/07/20 04:24:25;;;;;;;12.65;3.03;;;;;;;23.08;59.86;100782.06;4958211;29;20054;-82
2022/07/20 04:26:51;;;;;;;5.50;2.05;;;;;;;23.31;58.62;100774.94;4924756;29;20046;-80
2022/07/20 04:29:17;;;;;;;6.32;2.35;;;;;;;23.37;58.36;100790.22;4958221;29;20035;-81
2022/07/20 04:31:44;;;;;;;8.82;2.70;;;;;;;23.20;58.79;100792.84;4957932;29;20031;-81
2022/07/20 04:34:10;;;;;;;7.07;2.55;;;;;;;23.26;58.80;100793.78;4957418;29;20480;-82
2022/07/20 04:36:36;;;;;;;8.68;2.83;;;;;;;23.32;58.63;100804.47;4940495;29;20082;-79
2022/07/20 04:39:39;;;;;;;6.93;2.35;;;;;;;23.46;58.01;100799.66;4962993;29;20420;-82
2022/07/20 04:42:05;;;;;;;8.57;2.92;;;;;;;23.38;57.88;100808.09;4944384;29;20389;-81
2022/07/20 04:44:30;;;;;;;4.22;2.40;;;;;;;23.24;58.29;100799.44;4972876;29;20038;-81
2022/07/20 04:46:56;;;;;;;8.13;3.00;;;;;;;23.30;56.85;100798.47;4959346;29;20050;-82
2022/07/20 04:49:22;;;;;;;4.57;2.85;;;;;;;23.46;56.46;100810.47;4957209;29;20040;-82
2022/07/20 04:51:47;;;;;;;7.65;2.80;;;;;;;23.67;55.35;100810.63;4957765;29;20031;-81
2022/07/20 04:54:13;;;;;;;8.30;3.08;;;;;;;23.78;54.94;100814.38;4957048;29;20035;-81
2022/07/20 04:56:38;;;;;;;8.32;2.70;;;;;;;23.76;54.78;100805.69;4957293;29;20090;-80
2022/07/20 04:59:04;;;;;;;6.43;2.35;;;;;;;23.81;54.47;100803.06;4957482;29;20065;-83
2022/07/20 05:01:30;;;;;;;4.25;2.10;;;;;;;23.96;54.13;100816.84;4957068;29;20043;-82
2022/07/20 05:03:55;;;;;;;11.13;2.25;;;;;;;24.03;54.26;100804.00;4956272;28;20062;-83
2022/07/20 05:06:21;;;;;;;7.07;2.67;;;;;;;23.90;55.01;100807.00;4957408;29;20031;-83
2022/07/20 05:08:49;;;;;;;10.43;2.70;;;;;;;23.89;54.92;100802.69;4957196;29;20046;-80
2022/07/20 05:11:15;;;;;;;8.35;2.58;;;;;;;24.05;54.90;100803.78;4939971;29;20058;-83
2022/07/20 05:13:41;;;;;;;24.38;3.00;;;;;;;24.10;54.69;100798.44;4957272;29;20079;-81
2022/07/20 05:16:07;;;;;;;9.77;3.05;;;;;;;24.06;55.05;100805.41;4956747;29;20047;-82
2022/07/20 05:18:33;;;;;;;14.60;3.10;;;;;;;24.04;55.36;100802.13;4956929;29;20036;-82
2022/07/20 05:20:58;;;;;;;13.63;2.65;;;;;;;24.17;54.87;100802.66;4956599;29;20177;-82
2022/07/20 05:23:25;;;;;;;5.40;2.28;;;;;;;24.27;54.68;100807.44;4956634;29;20201;-84
2022/07/20 05:25:50;;;;;;;9.25;2.60;;;;;;;24.41;54.35;100806.06;4956835;29;20153;-81
2022/07/20 05:28:20;;;;;;;9.57;2.90;;;;;;;24.58;53.63;100814.19;4956922;29;20066;-82
2022/07/20 05:30:47;;;;;;;12.45;2.00;;;;;;;24.74;52.98;100807.94;4957235;29;20373;-82
2022/07/20 05:33:13;;;;;;;9.45;2.53;;;;;;;24.83;53.45;100809.16;4956894;29;20035;-81
2022/07/20 05:35:39;;;;;;;10.23;2.55;;;;;;;24.86;53.21;100816.00;4957300;29;20050;-83
2022/07/20 05:38:04;;;;;;;8.57;2.40;;;;;;;24.99;52.60;100818.38;4957453;29;20043;-84
2022/07/20 05:40:31;;;;;;;10.13;1.90;;;;;;;25.11;52.83;100819.91;4956394;29;20174;-83
2022/07/20 05:42:57;;;;;;;9.68;2.53;;;;;;;25.25;51.95;100820.34;4958055;29;20500;-82
2022/07/20 05:45:23;;;;;;;6.13;2.47;;;;;;;25.48;50.75;100824.72;4957470;29;20163;-81
2022/07/20 05:47:48;;;;;;;11.02;2.95;;;;;;;25.69;50.13;100826.63;4956333;29;20039;-82
2022/07/20 05:50:13;;;;;;;7.15;2.50;;;;;;;25.98;49.24;100836.19;4956258;29;20066;-81
2022/07/20 05:52:39;;;;;;;8.70;2.80;;;;;;;26.30;48.40;100838.16;4956093;29;20035;-82
2022/07/20 05:55:05;;;;;;;9.70;2.75;;;;;;;26.51;48.18;100839.97;4956474;29;20054;-82
2022/07/20 05:57:31;;;;;;;8.00;3.15;;;;;;;26.73;47.33;100838.78;4956184;29;20032;-81
2022/07/20 05:59:56;;;;;;;3.13;2.20;;;;;;;26.85;46.67;100841.34;4956036;29;20047;-83
2022/07/20 06:02:22;;;;;;;11.18;3.50;;;;;;;27.08;46.27;100830.06;4956142;29;20049;-83
2022/07/20 06:04:47;;;;;;;12.98;2.53;;;;;;;27.19;46.70;100836.38;4955865;29;20043;-82
2022/07/20 06:07:13;;;;;;;7.70;3.03;;;;;;;27.54;45.76;100835.78;4923049;29;20043;-81
2022/07/20 06:09:38;;;;;;;12.02;2.95;;;;;;;27.88;44.68;100834.25;4955969;29;20035;-81
2022/07/20 06:12:04;;;;;;;6.60;2.55;;;;;;;28.23;44.08;100826.19;4955826;29;20034;-81
2022/07/20 06:14:29;;;;;;;11.05;4.20;;;;;;;28.39;43.22;100837.91;4955448;28;20485;-82
2022/07/20 06:16:55;;;;;;;11.20;2.67;;;;;;;28.34;43.84;100837.09;4955863;29;20393;-83
2022/07/20 06:19:21;;;;;;;15.82;2.67;;;;;;;28.77;44.65;100835.75;4955751;29;20476;-82
2022/07/20 06:21:46;;;;;;;6.63;2.20;;;;;;;28.60;44.37;100841.47;4956186;29;20039;-81
2022/07/20 06:24:12;;;;;;;9.15;2.75;;;;;;;28.76;43.50;100839.56;4956310;29;20118;-82
2022/07/20 06:26:37;;;;;;;9.70;3.00;;;;;;;29.09;44.18;100839.78;4956452;29;20110;-82
2022/07/20 06:29:03;;;;;;;8.57;3.03;;;;;;;29.05;44.20;100844.16;4956016;29;20057;-82
2022/07/20 06:31:28;;;;;;;6.85;3.17;;;;;;;29.33;43.17;100839.19;4955752;29;20043;-82
2022/07/20 06:33:54;;;;;;;8.63;3.35;;;;;;;29.14;43.74;100842.50;4955708;29;20090;-81
2022/07/20 06:36:19;;;;;;;9.60;2.97;;;;;;;29.62;42.54;100843.72;4955904;29;20035;-83
2022/07/20 06:38:45;;;;;;;10.25;2.78;;;;;;;30.25;40.25;100858.41;4955353;29;20043;-82
2022/07/20 06:41:11;;;;;;;8.00;2.85;;;;;;;31.14;38.47;100857.13;4937897;29;20122;-83
2022/07/20 06:43:37;;;;;;;13.80;2.60;;;;;;;30.90;37.30;100853.50;4955480;29;20027;-83
2022/07/20 06:46:02;;;;;;;12.57;2.83;;;;;;;31.07;36.88;100859.41;4955133;29;20058;-82
2022/07/20 06:48:28;;;;;;;10.52;2.50;;;;;;;31.09;36.12;100857.19;4955215;29;20057;-82
2022/07/20 06:50:53;;;;;;;11.20;2.35;;;;;;;30.74;36.22;100866.53;4955349;29;20039;-81
2022/07/20 06:53:19;;;;;;;9.07;2.10;;;;;;;30.94;35.61;100853.75;4955386;29;20436;-82
2022/07/20 06:55:45;;;;;;;8.30;2.03;;;;;;;30.93;36.13;100863.88;4955046;29;20047;-81
2022/07/20 06:58:11;;;;;;;12.25;2.40;;;;;;;31.27;35.55;100872.88;4955214;29;20031;-80
2022/07/20 07:00:37;;;;;;;12.35;2.47;;;;;;;30.86;35.61;100862.63;4955320;29;20396;-82
2022/07/20 07:03:03;;;;;;;9.95;2.55;;;;;;;31.52;34.04;100857.28;4954911;29;20046;-81
2022/07/20 07:05:28;;;;;;;13.70;2.65;;;;;;;31.61;33.99;100866.50;4955028;29;20047;-82
2022/07/20 07:07:54;;;;;;;17.42;3.05;;;;;;;32.23;33.06;100868.13;4954800;29;20045;-81
2022/07/20 07:10:19;;;;;;;8.05;2.45;;;;;;;31.46;33.89;100866.63;4937786;29;20417;-81
2022/07/20 07:12:45;;;;;;;16.17;2.58;;;;;;;31.36;34.88;100866.75;4955004;29;20070;-82
2022/07/20 07:15:10;;;;;;;12.07;2.00;;;;;;;31.68;34.30;100864.22;4954924;29;20485;-84
2022/07/20 07:17:36;;;;;;;7.32;2.63;;;;;;;30.85;35.87;100866.44;4956349;29;20050;-81
2022/07/20 07:20:03;;;;;;;16.40;3.35;;;;;;;31.17;35.04;100859.28;4926177;29;20031;-82
2022/07/20 07:22:30;;;;;;;18.65;3.72;;;;;;;31.84;33.84;100867.56;4958615;29;20118;-82
2022/07/20 07:24:56;;;;;;;7.15;2.17;;;;;;;32.37;31.10;100866.25;4957756;29;20504;-82
2022/07/20 07:27:22;;;;;;;9.85;2.05;;;;;;;32.40;30.97;100864.84;4958357;28;20369;-82
2022/07/20 07:29:47;;;;;;;13.93;2.60;;;;;;;31.86;32.46;100866.16;4941879;29;20047;-82
2022/07/20 07:32:13;;;;;;;9.90;2.72;;;;;;;32.53;30.56;100869.56;4959407;29;20082;-82
2022/07/20 07:34:39;;;;;;;9.32;2.20;;;;;;;32.56;30.51;100867.03;4960267;29;20122;-83
2022/07/20 07:37:04;;;;;;;6.35;1.70;;;;;;;31.91;30.78;100866.09;4959936;29;20039;-82
2022/07/20 07:39:30;;;;;;;4.50;2.00;;;;;;;32.73;30.31;100858.28;4959554;29;20118;-81
2022/07/20 07:41:55;;;;;;;6.55;2.30;;;;;;;32.88;29.87;100866.22;4959418;29;20031;-84
2022/07/20 07:44:21;;;;;;;7.20;2.10;;;;;;;32.09;31.26;100859.81;4959118;29;20031;-80
2022/07/20 07:46:46;;;;;;;6.75;2.10;;;;;;;32.81;30.42;100865.00;4958949;29;20043;-81
2022/07/20 07:49:12;;;;;;;8.00;2.17;;;;;;;33.14;28.84;100859.19;4958898;29;20122;-80
2022/07/20 07:51:37;;;;;;;8.52;2.00;;;;;;;32.90;28.90;100864.00;4958831;29;20039;-80
2022/07/20 07:54:04;;;;;;;9.52;2.03;;;;;;;32.81;29.09;100865.00;4959008;29;20266;-82
2022/07/20 07:56:29;;;;;;;5.30;2.33;;;;;;;33.18;29.23;100851.97;4941996;29;20081;-80
2022/07/20 07:58:55;;;;;;;9.23;2.10;;;;;;;32.43;30.46;100856.00;4958885;29;20459;-81
2022/07/20 08:01:20;;;;;;;10.80;2.08;;;;;;;32.11;31.59;100854.88;4958455;29;20059;-87
2022/07/20 08:03:46;;;;;;;10.13;2.03;;;;;;;32.82;30.07;100861.13;4958560;29;20059;-82
2022/07/20 08:06:11;;;;;;;8.82;2.15;;;;;;;33.50;29.57;100866.72;4958427;29;20507;-83
2022/07/20 08:08:37;;;;;;;10.27;1.80;;;;;;;33.93;28.34;100859.78;4958437;29;20039;-84
2022/07/20 08:11:04;;;;;;;11.20;2.05;;;;;;;34.31;27.66;100859.47;4958295;29;20040;-88
2022/07/20 08:13:30;;;;;;;9.88;1.85;;;;;;;34.56;27.26;100858.84;4949783;28;20031;-81
2022/07/20 08:15:55;;;;;;;12.57;2.05;;;;;;;34.95;26.43;100869.97;4970039;28;20074;-82
2022/07/20 08:18:21;;;;;;;8.45;1.85;;;;;;;33.50;28.08;100863.97;4976199;28;20073;-84
2022/07/20 08:20:47;;;;;;;4.95;1.92;;;;;;;34.28;26.51;100872.72;4976788;28;20048;-83
2022/07/20 08:23:13;;;;;;;10.30;2.28;;;;;;;34.39;26.29;100861.47;4977072;28;20465;-82
2022/07/20 08:25:39;;;;;;;7.10;1.98;;;;;;;34.51;25.70;100875.47;4976829;28;20421;-81
2022/07/20 08:28:11;;;;;;;6.70;1.80;;;;;;;34.85;24.73;100873.00;4977119;28;20074;-80
2022/07/20 08:30:39;;;;;;;4.25;1.60;;;;;;;34.72;25.22;100877.47;4976889;28;20031;-82
2022/07/20 08:33:04;;;;;;;3.42;1.67;;;;;;;35.29;23.53;100869.34;4955889;28;20059;-82
2022/07/20 08:35:30;;;;;;;5.82;1.70;;;;;;;35.21;23.76;100872.88;4976437;28;20467;-81
2022/07/20 08:37:55;;;;;;;7.60;2.00;;;;;;;35.49;23.87;100881.75;4976481;28;20089;-80
2022/07/20 08:40:21;;;;;;;7.68;1.85;;;;;;;35.26;23.94;100870.81;4976571;28;20027;-84
2022/07/20 08:42:46;;;;;;;7.30;1.90;;;;;;;35.43;23.96;100864.53;4976653;28;20035;-85
2022/07/20 08:45:12;;;;;;;12.48;2.30;;;;;;;35.13;24.74;100870.91;4976364;28;20031;-84
2022/07/20 08:47:40;;;;;;;16.95;2.55;;;;;;;35.78;23.69;100869.03;4976442;28;20150;-81
2022/07/20 08:50:06;;;;;;;5.55;2.13;;;;;;;35.17;24.56;100872.69;4939795;28;20082;-82
2022/07/20 08:52:34;;;;;;;11.57;2.50;;;;;;;35.19;24.65;100861.38;4973302;28;20066;-83
2022/07/20 08:55:00;;;;;;;13.38;2.72;;;;;;;36.23;23.60;100855.75;4975591;28;20035;-83
2022/07/20 08:57:31;;;;;;;10.45;2.22;;;;;;;35.36;23.64;100858.69;4976095;28;20045;-83
2022/07/20 08:59:56;;;;;;;13.25;2.35;;;;;;;35.68;22.66;100860.25;4975976;28;20137;-84
2022/07/20 09:02:22;;;;;;;7.00;2.13;;;;;;;35.36;22.79;100853.16;4976339;28;20467;-84
2022/07/20 09:04:53;;;;;;;16.73;2.13;;;;;;;35.74;22.35;100856.19;4975920;28;20033;-82
2022/07/20 09:07:36;;;;;;;11.70;2.00;;;;;;;35.93;21.28;100848.41;4976064;28;20039;-83
2022/07/20 09:10:08;;;;;;;9.00;1.67;;;;;;;35.68;21.84;100849.22;4976035;28;20034;-83
2022/07/20 09:12:56;;;;;;;6.78;1.80;;;;;;;36.41;21.03;100851.06;4942883;28;20041;-83
2022/07/20 09:15:29;;;;;;;10.85;2.58;;;;;;;36.00;21.43;100842.41;4975593;28;20049;-82
2022/07/20 09:18:21;;;;;;;10.45;2.00;;;;;;;36.37;20.80;100860.31;4975593;28;20035;-85
2022/07/20 09:21:09;;;;;;;8.70;1.80;;;;;;;36.66;20.74;100852.16;4974076;28;20082;-87
2022/07/20 09:23:41;;;;;;;7.03;1.67;;;;;;;36.84;19.65;100858.47;4960079;28;20030;-87
2022/07/20 09:26:07;;;;;;;;;;;;;;;36.10;19.67;100851.22;4985414;28;20034;-83
2022/07/20 09:28:34;;;;;;;13.18;1.73;;;;;;;35.23;19.94;100857.63;4959526;28;20363;-83
2022/07/20 09:31:00;;;;;;;4.88;1.40;;;;;;;35.25;20.75;100847.13;4975672;28;20480;-81
2022/07/20 09:33:31;;;;;;;6.95;1.92;;;;;;;36.03;20.68;100834.31;4957623;28;20037;-84
2022/07/20 09:35:58;;;;;;;6.85;1.70;;;;;;;36.24;20.62;100840.00;4975862;28;20046;-84
2022/07/20 09:38:38;;;;;;;11.02;1.67;;;;;;;36.43;21.03;100847.94;4975647;28;20056;-83
2022/07/20 09:41:07;;;;;;;3.55;1.48;;;;;;;35.81;21.20;100837.22;4975648;28;20038;-85
2022/07/20 09:43:35;;;;;;;5.53;1.48;;;;;;;35.96;21.10;100839.53;4975890;28;20094;-82
2022/07/20 09:46:14;;;;;;;10.23;1.67;;;;;;;36.30;21.06;100841.47;4975367;28;20047;-83
2022/07/20 09:48:45;;;;;;;4.50;1.20;;;;;;;36.60;20.59;100825.84;4975667;28;20031;-82
2022/07/20 09:51:23;;;;;;;13.23;1.80;;;;;;;36.68;20.66;100838.84;4975265;28;20054;-79
2022/07/20 09:53:51;;;;;;;7.72;1.30;;;;;;;36.38;20.43;100834.31;4970485;28;20039;-78
2022/07/20 09:56:18;;;;;;;7.07;1.60;;;;;;;36.08;21.10;100822.34;4947268;29;20082;-85
2022/07/20 09:58:46;;;;;;;9.00;1.55;;;;;;;36.44;21.16;100820.03;4959278;28;20039;-80
2022/07/20 10:01:16;;;;;;;8.43;1.80;;;;;;;36.50;19.22;100821.47;4964983;28;20039;-82
2022/07/20 10:03:42;;;;;;;4.75;1.70;;;;;;;36.45;19.42;100812.56;4967866;28;20084;-84
2022/07/20 10:06:09;;;;;;;9.13;1.73;;;;;;;36.63;19.99;100819.66;4960556;28;20516;-81
2022/07/20 10:08:34;;;;;;;6.68;1.83;;;;;;;36.86;19.72;100823.03;4965690;28;20503;-81
2022/07/20 10:11:00;;;;;;;5.40;1.50;;;;;;;36.92;19.34;100810.66;4973187;28;20027;-79
2022/07/20 10:13:27;;;;;;;7.07;1.70;;;;;;;36.45;19.71;100816.13;4975153;28;20039;-80
2022/07/20 10:15:58;;;;;;;5.95;1.25;;;;;;;36.50;19.85;100809.59;4974835;28;20133;-81
2022/07/20 10:18:25;;;;;;;8.48;1.60;;;;;;;36.43;19.63;100809.28;4975120;28;20038;-82
2022/07/20 10:20:53;;;;;;;7.03;1.60;;;;;;;36.39;19.44;100814.69;4974165;28;20094;-80
2022/07/20 10:23:22;;;;;;;5.93;1.55;;;;;;;36.46;19.49;100814.97;4974788;28;20114;-80
2022/07/20 10:25:49;;;;;;;6.18;1.67;;;;;;;36.44;19.71;100817.25;4974521;28;20050;-81
2022/07/20 10:28:27;;;;;;;11.25;1.58;;;;;;;36.81;19.46;100821.25;4977620;28;20038;-78
2022/07/20 10:30:52;;;;;;;6.90;1.85;;;;;;;36.59;19.59;100818.72;4970160;28;20039;-79
2022/07/20 10:33:18;;;;;;;3.65;1.30;;;;;;;36.51;19.48;100812.03;4984391;28;20097;-80
2022/07/20 10:35:47;;;;;;;5.75;1.60;;;;;;;36.45;19.20;100812.56;4967218;28;20465;-78
2022/07/20 10:38:18;;;;;;;3.80;1.90;;;;;;;36.33;19.66;100793.09;4969031;28;20042;-81
2022/07/20 10:44:19;;;;;;;3.22;1.40;;;;;;;37.34;19.17;100806.09;4953673;28;20053;-83
2022/07/20 10:46:45;;;;;;;9.48;1.92;;;;;;;36.85;19.11;100816.69;4969965;28;20408;-81
2022/07/20 10:49:11;;;;;;;9.98;1.83;;;;;;;36.65;19.57;100807.19;4972860;28;20089;-84
2022/07/20 10:51:36;;;;;;;5.32;1.50;;;;;;;36.76;19.21;100802.09;4986035;28;20035;-82
2022/07/20 10:54:34;;;;;;;6.90;1.60;;;;;;;37.09;18.71;100808.63;4974343;28;20049;-80
2022/07/20 10:57:02;;;;;;;10.43;1.70;;;;;;;36.97;18.57;100802.97;4978110;28;20038;-80
2022/07/20 10:59:28;;;;;;;4.80;1.33;;;;;;;36.62;18.85;100807.03;4990249;28;20450;-81
2022/07/20 11:01:54;;;;;;;7.22;1.65;;;;;;;36.81;18.88;100796.38;4979167;28;20034;-79
2022/07/20 11:04:24;;;;;;;6.53;1.75;;;;;;;37.36;18.71;100787.19;4985385;28;20042;-84
2022/07/20 11:06:50;;;;;;;3.47;1.60;;;;;;;37.26;18.74;100791.16;4973405;28;20058;-82
2022/07/20 11:09:15;;;;;;;9.32;1.80;;;;;;;36.87;19.35;100786.78;4969276;28;20031;-83
2022/07/20 11:11:42;;;;;;;4.85;1.58;;;;;;;36.91;19.20;100782.22;4948349;28;20032;-80
2022/07/20 11:14:10;;;;;;;4.30;1.67;;;;;;;36.95;19.36;100780.41;4973505;28;20061;-80
2022/07/20 11:16:37;;;;;;;4.30;1.33;;;;;;;36.98;19.21;100781.69;4980416;28;21564;-80
2022/07/20 11:19:05;;;;;;;4.75;1.33;;;;;;;37.16;18.74;100774.94;4968581;28;20038;-79
2022/07/20 11:21:33;;;;;;;5.63;1.50;;;;;;;36.96;19.20;100773.72;4964411;28;20036;-82
2022/07/20 11:23:58;;;;;;;5.95;1.48;;;;;;;36.99;19.17;100781.34;4972596;28;20544;-83
2022/07/20 11:26:24;;;;;;;7.55;1.67;;;;;;;37.23;18.98;100770.53;4967779;28;20114;-83
2022/07/20 11:28:55;;;;;;;8.07;1.50;;;;;;;37.04;18.97;100763.81;4967956;28;20388;-86
2022/07/20 11:31:30;;;;;;;5.57;1.33;;;;;;;36.83;19.11;100760.94;4972590;28;20028;-78
2022/07/20 11:33:58;;;;;;;8.27;1.58;;;;;;;36.75;19.19;100751.56;4976099;28;20046;-83